Time;durP1;ratioP1;P1;durP2;ratioP2;P2;SDS_P1;SDS_P2;PMS_P1;PMS_P2;Temp;Humidity;BMP_temperature;BMP_pressure;BME280_temperature;BME280_humidity;BME280_pressure;Samples;Min_cycle;Max_cycle;Signal;HPM_P1;HPM_P2
2022/05/23 00:02:13;;;;;;;16.10;6.27;;;;;;;16.75;65.32;100598.06;5031504;28;20063;-86
2022/05/23 00:04:40;;;;;;;10.83;5.63;;;;;;;16.75;64.82;100608.06;5030312;28;20386;-85
2022/05/23 00:07:29;;;;;;;12.98;5.88;;;;;;;16.75;64.78;100606.19;5033729;28;20029;-85
2022/05/23 00:09:55;;;;;;;10.52;5.82;;;;;;;16.71;65.31;100601.66;5033947;28;20125;-85
2022/05/23 00:12:22;;;;;;;9.07;5.85;;;;;;;16.70;65.14;100603.56;5010735;28;20501;-87
2022/05/23 00:14:49;;;;;;;11.10;5.63;;;;;;;16.70;65.27;100611.69;5013286;28;20186;-86
2022/05/23 00:17:14;;;;;;;9.83;5.57;;;;;;;16.65;65.40;100609.09;5025358;28;20463;-86
2022/05/23 00:19:39;;;;;;;11.60;5.73;;;;;;;16.58;65.75;100614.13;5023732;28;20406;-85
2022/05/23 00:22:05;;;;;;;10.90;5.87;;;;;;;16.59;65.53;100616.53;5030595;28;20018;-86
2022/05/23 00:24:30;;;;;;;11.27;5.37;;;;;;;16.60;65.83;100606.53;5016882;28;20736;-86
2022/05/23 00:26:56;;;;;;;9.53;5.37;;;;;;;16.57;65.63;100604.41;5030971;28;20022;-86
2022/05/23 00:29:21;;;;;;;11.65;5.93;;;;;;;16.55;66.25;100604.72;5030902;28;20041;-86
2022/05/23 00:37:17;;;;;;;11.07;5.38;;;;;;;16.40;67.28;100588.81;5027119;28;20080;-85
2022/05/23 00:39:42;;;;;;;10.30;5.50;;;;;;;16.37;66.78;100579.41;5029978;28;20469;-86
2022/05/23 00:44:57;;;;;;;11.65;5.60;;;;;;;16.42;67.26;100600.13;5030467;28;20067;-86
2022/05/23 00:47:25;;;;;;;8.33;5.70;;;;;;;16.39;67.56;100581.81;5030587;28;20072;-86
2022/05/23 00:49:51;;;;;;;11.02;6.07;;;;;;;16.36;67.01;100583.22;5029463;28;20022;-86
2022/05/23 00:52:28;;;;;;;11.87;5.53;;;;;;;16.31;66.84;100577.91;5016975;28;20033;-85
2022/05/23 00:54:57;;;;;;;14.68;6.13;;;;;;;16.28;67.72;100575.81;5030572;28;20469;-86
2022/05/23 00:57:31;;;;;;;12.68;6.22;;;;;;;16.18;67.55;100563.31;5030101;28;20029;-86
2022/05/23 00:59:57;;;;;;;8.93;5.80;;;;;;;16.26;67.83;100565.31;5030280;28;20056;-85
2022/05/23 01:02:23;;;;;;;11.70;5.47;;;;;;;16.27;67.94;100569.63;5012690;28;20041;-86
2022/05/23 01:04:50;;;;;;;11.48;5.88;;;;;;;16.30;67.57;100562.78;5012245;28;20036;-86
2022/05/23 01:07:16;;;;;;;9.77;6.07;;;;;;;16.27;67.64;100553.41;5026302;28;20033;-86
2022/05/23 01:09:43;;;;;;;12.85;5.95;;;;;;;16.25;67.34;100557.50;5031183;28;20049;-86
2022/05/23 01:12:08;;;;;;;17.98;6.20;;;;;;;16.25;67.32;100560.22;5019497;28;20417;-86
2022/05/23 01:14:53;;;;;;;12.67;5.80;;;;;;;16.23;66.95;100567.81;5014388;28;20092;-85
2022/05/23 01:17:21;;;;;;;13.55;6.15;;;;;;;16.17;67.90;100586.03;5029496;28;20099;-85
2022/05/23 01:19:47;;;;;;;13.77;6.72;;;;;;;16.19;67.28;100587.34;5032510;28;20477;-85
2022/05/23 01:22:26;;;;;;;9.63;6.25;;;;;;;16.13;67.95;100575.03;5030530;28;20442;-86
2022/05/23 01:25:09;;;;;;;12.38;6.53;;;;;;;16.15;67.83;100582.84;5018670;28;20069;-86
2022/05/23 01:27:37;;;;;;;10.03;5.97;;;;;;;16.07;68.18;100568.09;5013938;28;20092;-88
2022/05/23 01:30:03;;;;;;;10.67;5.70;;;;;;;16.05;68.18;100554.13;5014211;28;20763;-89
2022/05/23 01:32:29;;;;;;;13.65;6.13;;;;;;;16.01;68.18;100556.59;5013755;28;20034;-88
2022/05/23 01:34:54;;;;;;;10.17;6.13;;;;;;;15.94;69.30;100558.13;5027577;28;20052;-89
2022/05/23 01:37:20;;;;;;;12.48;6.13;;;;;;;15.81;69.55;100546.16;5028209;28;20461;-88
2022/05/23 01:39:45;;;;;;;13.33;6.83;;;;;;;15.79;69.81;100543.00;5016731;28;20030;-88
2022/05/23 01:42:11;;;;;;;12.65;6.47;;;;;;;15.74;70.16;100541.16;5024895;28;20034;-88
2022/05/23 01:44:36;;;;;;;16.27;7.37;;;;;;;15.62;70.63;100532.78;5013872;28;20029;-88
2022/05/23 01:47:15;;;;;;;15.38;6.95;;;;;;;15.56;70.25;100540.97;5013509;28;20032;-88
2022/05/23 01:49:41;;;;;;;13.13;6.57;;;;;;;15.45;71.05;100536.84;5013702;28;20026;-88
2022/05/23 01:52:09;;;;;;;12.52;6.80;;;;;;;15.40;70.95;100553.13;5025178;28;20087;-88
2022/05/23 01:54:35;;;;;;;13.82;6.93;;;;;;;15.39;70.89;100546.13;5032839;28;20550;-88
2022/05/23 01:57:02;;;;;;;13.50;6.88;;;;;;;15.40;71.41;100548.56;5029612;28;20052;-88
2022/05/23 02:02:11;;;;;;;12.43;6.90;;;;;;;15.42;71.81;100542.84;5012665;28;20129;-88
2022/05/23 02:04:36;;;;;;;12.13;6.53;;;;;;;15.50;71.81;100538.66;5029433;28;20124;-88
2022/05/23 02:07:03;;;;;;;18.37;7.30;;;;;;;15.45;71.84;100534.94;5028139;28;20033;-88
2022/05/23 02:09:29;;;;;;;13.80;7.35;;;;;;;15.45;71.41;100523.34;5013140;28;20034;-88
2022/05/23 02:11:57;;;;;;;15.18;7.57;;;;;;;15.39;71.91;100513.72;5013710;28;20080;-88
2022/05/23 02:14:23;;;;;;;13.07;6.80;;;;;;;15.38;72.28;100521.03;5012639;28;20545;-88
2022/05/23 02:16:49;;;;;;;13.37;6.87;;;;;;;15.34;72.26;100527.34;5024742;28;20124;-88
2022/05/23 02:19:15;;;;;;;14.25;7.13;;;;;;;15.26;72.39;100523.41;5024189;28;20041;-88
2022/05/23 02:21:40;;;;;;;12.47;6.83;;;;;;;15.27;72.30;100530.41;5031169;28;20489;-88
2022/05/23 02:24:09;;;;;;;12.88;6.82;;;;;;;15.24;72.24;100531.03;5031589;28;20025;-88
2022/05/23 02:26:34;;;;;;;10.83;6.40;;;;;;;15.22;72.57;100520.50;5032726;28;20080;-88
2022/05/23 02:29:02;;;;;;;16.00;7.50;;;;;;;15.21;72.62;100523.50;5028870;28;20304;-88
2022/05/23 02:31:28;;;;;;;13.23;7.17;;;;;;;15.15;73.03;100520.09;5012893;28;20070;-88
2022/05/23 02:33:54;;;;;;;16.57;8.20;;;;;;;15.17;73.15;100515.19;5008552;28;20695;-88
2022/05/23 02:36:19;;;;;;;13.05;7.32;;;;;;;15.16;73.18;100518.97;5053984;28;20028;-87
2022/05/23 02:38:45;;;;;;;11.53;7.33;;;;;;;15.19;73.14;100514.91;5053656;28;20010;-88
2022/05/23 02:41:10;;;;;;;12.93;7.40;;;;;;;15.17;73.59;100511.69;5056960;28;20040;-88
2022/05/23 02:43:35;;;;;;;12.97;7.60;;;;;;;15.13;73.98;100514.19;5045263;28;20026;-87
2022/05/23 02:46:01;;;;;;;14.25;7.32;;;;;;;15.07;73.99;100502.66;5037926;28;20401;-88
2022/05/23 02:48:26;;;;;;;13.83;7.37;;;;;;;15.06;74.29;100500.28;5039913;28;20057;-88
2022/05/23 02:50:52;;;;;;;13.23;7.80;;;;;;;15.03;74.36;100490.88;5019554;28;20178;-88
2022/05/23 02:53:17;;;;;;;16.67;8.37;;;;;;;14.98;74.07;100478.25;5035542;28;20087;-89
2022/05/23 02:55:42;;;;;;;16.27;8.63;;;;;;;14.88;74.74;100459.56;5033929;28;20295;-88
2022/05/23 02:58:07;;;;;;;13.77;8.03;;;;;;;14.98;74.58;100466.69;5034996;28;20528;-88
2022/05/23 03:00:34;;;;;;;14.57;7.93;;;;;;;14.95;75.18;100456.47;5034002;28;20032;-88
2022/05/23 03:03:02;;;;;;;13.75;8.10;;;;;;;14.91;75.25;100450.06;5030828;28;20044;-88
2022/05/23 03:05:36;;;;;;;16.02;7.97;;;;;;;14.87;74.86;100441.78;5032668;28;20028;-88
2022/05/23 03:08:02;;;;;;;14.55;8.40;;;;;;;14.84;75.16;100428.88;5031284;28;20041;-88
2022/05/23 03:10:27;;;;;;;15.87;8.20;;;;;;;14.86;74.70;100421.28;5030685;28;20037;-88
2022/05/23 03:12:53;;;;;;;12.50;8.33;;;;;;;14.82;75.75;100418.41;5012850;28;20273;-88
2022/05/23 03:15:20;;;;;;;18.40;8.60;;;;;;;14.69;75.89;100395.69;5013057;28;20026;-88
2022/05/23 03:17:45;;;;;;;19.77;8.38;;;;;;;14.75;75.62;100401.78;5030555;28;20075;-88
2022/05/23 03:20:11;;;;;;;16.13;8.25;;;;;;;14.72;76.18;100401.59;5031313;28;20076;-88
2022/05/23 03:28:04;;;;;;;14.18;8.00;;;;;;;14.60;76.84;100389.34;5026561;28;20087;-88
2022/05/23 03:30:30;;;;;;;15.27;8.30;;;;;;;14.57;76.65;100381.84;5033409;28;20033;-88
2022/05/23 03:32:59;;;;;;;12.95;8.65;;;;;;;14.58;77.13;100382.63;5035085;28;20018;-92
2022/05/23 03:35:41;;;;;;;14.80;7.80;;;;;;;14.54;77.23;100377.06;5030585;28;20385;-87
2022/05/23 03:38:08;;;;;;;14.65;8.32;;;;;;;14.52;77.51;100374.63;5031378;28;20025;-88
2022/05/23 03:40:36;;;;;;;19.07;8.67;;;;;;;14.50;77.87;100370.63;5018341;28;20034;-88
2022/05/23 03:43:02;;;;;;;18.00;8.50;;;;;;;14.46;78.06;100366.94;5017841;28;20049;-88
2022/05/23 03:45:28;;;;;;;18.55;9.13;;;;;;;14.42;78.15;100363.25;5036643;28;20029;-88
2022/05/23 03:47:54;;;;;;;16.67;8.27;;;;;;;14.36;78.65;100352.53;5021637;28;20048;-90
2022/05/23 03:50:22;;;;;;;17.60;7.97;;;;;;;14.44;78.40;100359.16;5037271;28;20056;-89
2022/05/23 03:52:48;;;;;;;15.63;8.03;;;;;;;14.48;78.15;100359.34;5049124;28;20300;-89
2022/05/23 03:55:14;;;;;;;12.50;8.32;;;;;;;14.50;78.24;100351.78;5053368;28;20034;-90
2022/05/23 03:57:40;;;;;;;16.52;8.65;;;;;;;14.54;78.11;100350.88;5051638;28;20039;-87
2022/05/23 04:00:07;;;;;;;16.80;8.07;;;;;;;14.58;78.41;100352.97;5037548;28;20090;-94
2022/05/23 04:02:34;;;;;;;14.30;8.63;;;;;;;14.62;78.30;100357.47;5020578;28;20019;-90
2022/05/23 04:04:59;;;;;;;14.15;8.82;;;;;;;14.60;78.23;100348.91;5021846;28;20045;-91
2022/05/23 04:07:25;;;;;;;16.30;8.02;;;;;;;14.66;77.47;100342.31;5043019;28;20499;-89
2022/05/23 04:09:51;;;;;;;13.13;8.50;;;;;;;14.64;77.44;100338.34;5015519;28;20129;-88
2022/05/23 04:12:19;;;;;;;14.67;8.80;;;;;;;14.66;77.93;100347.72;5028380;28;20109;-88
2022/05/23 04:14:45;;;;;;;14.60;8.52;;;;;;;14.66;78.04;100342.31;5025865;28;20022;-88
2022/05/23 04:17:11;;;;;;;16.63;8.90;;;;;;;14.58;78.93;100323.31;5032798;28;20056;-88
2022/05/23 04:19:39;;;;;;;11.93;8.37;;;;;;;14.66;78.46;100323.44;5029109;28;20122;-89
2022/05/23 04:22:04;;;;;;;12.75;8.27;;;;;;;14.63;78.72;100317.84;5029380;28;20036;-89
2022/05/23 04:24:29;;;;;;;12.47;8.13;;;;;;;14.66;78.72;100328.84;5030235;28;20029;-88
2022/05/23 04:26:57;;;;;;;14.90;8.67;;;;;;;14.63;79.11;100326.72;5031397;28;20312;-89
2022/05/23 04:29:23;;;;;;;15.50;9.07;;;;;;;14.68;78.98;100320.50;5030996;28;20058;-88
2022/05/23 04:31:49;;;;;;;11.37;9.10;;;;;;;14.69;78.83;100317.50;5029213;28;20366;-88
2022/05/23 04:36:59;;;;;;;13.50;8.52;;;;;;;14.84;78.69;100321.81;5030219;28;20049;-88
2022/05/23 04:39:24;;;;;;;13.48;8.48;;;;;;;14.95;78.35;100324.28;5017056;28;20038;-87
2022/05/23 04:41:50;;;;;;;15.07;9.17;;;;;;;14.96;79.14;100317.81;5016128;28;20029;-88
2022/05/23 04:44:15;;;;;;;13.67;8.60;;;;;;;15.05;78.29;100309.81;5020898;28;20570;-87
2022/05/23 04:49:41;;;;;;;15.80;8.43;;;;;;;15.19;77.97;100320.59;5034654;28;20033;-88
2022/05/23 04:52:14;;;;;;;16.40;8.85;;;;;;;15.37;77.59;100306.19;5016569;28;20046;-88
2022/05/23 04:54:41;;;;;;;13.90;8.65;;;;;;;15.45;76.56;100302.75;5016305;28;20415;-91
2022/05/23 04:57:09;;;;;;;11.38;8.38;;;;;;;15.47;77.32;100294.38;5030137;28;20022;-93
2022/05/23 04:59:35;;;;;;;13.80;9.10;;;;;;;15.53;77.61;100300.44;5036566;28;20057;-91
2022/05/23 05:02:01;;;;;;;15.07;8.80;;;;;;;15.62;76.47;100295.13;5027855;28;20371;-92
2022/05/23 05:04:28;;;;;;;17.25;9.13;;;;;;;15.67;76.17;100303.91;5037319;28;20025;-93
2022/05/23 05:06:54;;;;;;;16.15;9.07;;;;;;;15.66;76.42;100286.09;5021048;28;20025;-93
2022/05/23 05:09:20;;;;;;;13.82;9.00;;;;;;;15.68;76.13;100278.50;5037620;28;20084;-94
2022/05/23 05:11:45;;;;;;;13.13;8.77;;;;;;;15.74;76.14;100281.88;5029135;28;20117;-92
2022/05/23 05:14:12;;;;;;;16.30;8.53;;;;;;;15.79;76.32;100284.47;5028623;28;20044;-90
2022/05/23 05:16:37;;;;;;;18.17;8.77;;;;;;;15.94;76.34;100283.34;5026481;28;20164;-89
2022/05/23 05:19:03;;;;;;;14.87;9.07;;;;;;;16.05;75.80;100265.75;5024815;28;20116;-90
2022/05/23 05:21:29;;;;;;;18.33;9.23;;;;;;;16.23;75.69;100260.44;5021242;28;20021;-90
2022/05/23 05:23:54;;;;;;;16.73;8.93;;;;;;;16.40;74.94;100251.66;5035511;28;20022;-88
2022/05/23 05:26:19;;;;;;;11.03;8.17;;;;;;;16.52;74.13;100245.66;4999088;28;20281;-89
2022/05/23 05:28:44;;;;;;;16.47;8.57;;;;;;;16.64;74.07;100239.63;5026702;28;20021;-90
2022/05/23 05:31:25;;;;;;;16.97;8.83;;;;;;;16.77;73.51;100246.84;5037480;28;20040;-94
2022/05/23 05:33:55;;;;;;;12.70;8.32;;;;;;;16.88;73.33;100251.97;5035744;28;20021;-92
2022/05/23 05:36:27;;;;;;;12.70;8.52;;;;;;;16.94;72.49;100248.00;5039425;28;20044;-94
2022/05/23 05:39:01;;;;;;;11.77;8.15;;;;;;;17.05;72.95;100240.44;5022740;28;20116;-94
2022/05/23 05:41:52;;;;;;;14.30;8.07;;;;;;;17.12;72.50;100238.03;5041625;28;20073;-92
2022/05/23 05:44:20;;;;;;;12.70;8.27;;;;;;;17.23;72.21;100233.91;5051166;28;20280;-94
2022/05/23 05:46:50;;;;;;;14.77;8.43;;;;;;;17.24;72.41;100232.81;5061037;28;20009;-94
2022/05/23 05:49:19;;;;;;;12.30;7.97;;;;;;;17.29;71.99;100222.91;5059033;28;20044;-94
2022/05/23 05:51:48;;;;;;;12.60;7.97;;;;;;;17.33;71.88;100213.84;5045245;28;20045;-94
2022/05/23 05:54:21;;;;;;;10.18;7.47;;;;;;;17.37;71.64;100216.72;5045824;28;20088;-94
2022/05/23 05:56:46;;;;;;;16.77;8.60;;;;;;;17.49;71.72;100218.78;5038630;28;20096;-94
2022/05/23 05:59:13;;;;;;;13.05;8.95;;;;;;;17.51;71.80;100205.72;5036940;28;20488;-91
2022/05/23 06:01:40;;;;;;;12.10;7.63;;;;;;;17.62;71.12;100206.97;5022334;28;20072;-93
2022/05/23 06:04:08;;;;;;;12.40;8.00;;;;;;;17.66;71.18;100210.66;5033837;28;20030;-90
2022/05/23 06:12:05;;;;;;;14.23;7.68;;;;;;;18.05;69.24;100215.38;5031789;28;20045;-93
2022/05/23 06:14:30;;;;;;;12.68;7.40;;;;;;;18.17;69.54;100204.66;5040461;28;20046;-94
2022/05/23 06:16:55;;;;;;;12.73;7.90;;;;;;;18.25;68.66;100205.75;5038593;28;20038;-91
2022/05/23 06:19:21;;;;;;;14.17;6.93;;;;;;;18.42;67.96;100200.25;5035283;28;20029;-93
2022/05/23 06:21:47;;;;;;;10.98;7.50;;;;;;;18.55;67.01;100194.91;5023467;28;20041;-94
2022/05/23 06:24:15;;;;;;;13.80;7.00;;;;;;;18.67;66.64;100196.94;5014746;28;20037;-91
2022/05/23 06:26:40;;;;;;;23.65;7.40;;;;;;;18.90;67.30;100187.38;5016435;28;20107;-93
2022/05/23 06:29:06;;;;;;;14.90;7.70;;;;;;;18.98;65.62;100184.97;5036431;28;20041;-91
2022/05/23 06:31:31;;;;;;;9.07;6.78;;;;;;;19.08;64.63;100176.41;5033876;28;20021;-92
2022/05/23 06:33:57;;;;;;;10.93;6.77;;;;;;;19.16;64.16;100183.72;5030507;28;20575;-94
2022/05/23 06:36:22;;;;;;;9.37;6.83;;;;;;;19.26;63.90;100179.81;5032125;28;20353;-93
2022/05/23 06:38:48;;;;;;;12.63;6.70;;;;;;;19.45;64.38;100176.59;5033893;28;20072;-90
2022/05/23 06:41:15;;;;;;;10.75;6.80;;;;;;;19.52;63.44;100170.59;5029691;28;20190;-92
2022/05/23 06:43:44;;;;;;;10.85;6.38;;;;;;;19.59;62.91;100180.94;5021106;28;20113;-92
2022/05/23 06:46:11;;;;;;;14.32;6.95;;;;;;;19.58;63.03;100173.91;5015425;28;20034;-92
2022/05/23 06:48:36;;;;;;;12.05;7.03;;;;;;;19.62;62.42;100172.91;5013354;28;20106;-92
2022/05/23 06:51:02;;;;;;;14.13;6.93;;;;;;;19.63;62.47;100177.19;5020597;28;20477;-93
2022/05/23 06:53:29;;;;;;;13.10;7.00;;;;;;;19.68;62.26;100174.28;5032727;28;20037;-94
2022/05/23 06:55:55;;;;;;;11.57;6.97;;;;;;;19.74;61.71;100172.13;5031746;28;20099;-93
2022/05/23 06:58:21;;;;;;;34.10;8.02;;;;;;;19.94;61.99;100180.59;5015727;28;20044;-94
2022/05/23 07:00:47;;;;;;;13.68;6.88;;;;;;;20.21;60.66;100189.25;5029958;28;20382;-93
2022/05/23 07:03:12;;;;;;;10.05;6.82;;;;;;;20.41;60.70;100182.91;5003287;28;20029;-94
2022/05/23 07:13:53;;;;;;;11.15;5.95;;;;;;;20.21;60.26;100173.72;5031962;28;20515;-91
2022/05/23 07:16:19;;;;;;;10.50;5.90;;;;;;;20.36;60.36;100174.97;5030781;28;20033;-90
2022/05/23 07:18:46;;;;;;;13.77;6.20;;;;;;;20.37;60.77;100173.84;5030331;28;20029;-91
2022/05/23 07:21:11;;;;;;;7.88;5.30;;;;;;;20.55;60.34;100181.78;5027666;28;20028;-90
2022/05/23 07:23:38;;;;;;;10.73;5.63;;;;;;;20.66;58.62;100169.28;5030904;28;20396;-92
2022/05/23 07:26:07;;;;;;;11.40;5.57;;;;;;;20.65;58.89;100180.50;5031594;28;20065;-89
2022/05/23 07:28:35;;;;;;;8.43;5.50;;;;;;;20.55;59.47;100168.16;5013919;28;20037;-91
2022/05/23 07:31:00;;;;;;;9.20;5.73;;;;;;;20.61;58.97;100168.72;5027212;28;20873;-85
2022/05/23 07:33:26;;;;;;;12.13;5.82;;;;;;;20.71;58.50;100174.50;5031768;28;20112;-93
2022/05/23 07:36:08;;;;;;;14.30;5.90;;;;;;;20.71;58.48;100174.50;5048428;28;20030;-95
2022/05/23 07:38:37;;;;;;;12.57;5.35;;;;;;;20.64;58.16;100176.97;5043496;28;20037;-95
2022/05/23 07:43:47;;;;;;;11.48;5.53;;;;;;;20.66;58.27;100174.72;5315536;22;20053;-93
2022/05/23 07:46:14;;;;;;;9.80;6.00;;;;;;;20.57;58.25;100152.28;5035824;28;20044;-94
2022/05/23 07:49:00;;;;;;;8.65;5.68;;;;;;;20.63;58.61;100144.69;5027363;28;20017;-96
2022/05/23 07:51:41;;;;;;;9.15;6.43;;;;;;;20.96;57.49;100136.34;5234682;22;20505;-95
2022/05/23 08:05:59;;;;;;;8.15;5.60;;;;;;;22.76;52.03;100131.09;5032653;28;20077;-90
2022/05/23 08:08:26;;;;;;;9.23;5.70;;;;;;;23.20;52.08;100145.59;5022035;28;20033;-88
2022/05/23 08:11:13;;;;;;;9.90;5.60;;;;;;;23.70;50.95;100160.25;5013850;28;20398;-90
2022/05/23 08:14:41;;;;;;;9.93;5.05;;;;;;;23.61;49.57;100129.59;5023389;28;20072;-92
2022/05/23 08:17:07;;;;;;;8.38;5.00;;;;;;;23.86;48.65;100137.47;5008305;28;20045;-88
2022/05/23 08:19:33;;;;;;;14.23;4.82;;;;;;;23.92;48.66;100125.03;5011182;28;20161;-88
2022/05/23 08:21:59;;;;;;;9.93;4.87;;;;;;;24.00;48.50;100120.53;5009831;28;20025;-88
2022/05/23 08:24:24;;;;;;;6.70;4.78;;;;;;;24.20;48.92;100123.94;5012445;28;20029;-88
2022/05/23 08:26:51;;;;;;;16.23;5.60;;;;;;;24.03;47.31;100122.50;5012130;28;20112;-89
2022/05/23 08:29:19;;;;;;;12.88;5.53;;;;;;;23.63;48.01;100119.09;5013739;28;20029;-86
2022/05/23 08:31:45;;;;;;;8.35;5.22;;;;;;;23.33;49.76;100121.69;5010091;28;20032;-87
2022/05/23 08:34:10;;;;;;;20.97;5.40;;;;;;;23.25;50.56;100121.56;5010438;28;20029;-87
2022/05/23 08:36:38;;;;;;;11.43;5.73;;;;;;;23.25;50.41;100128.94;5010753;28;20784;-86
2022/05/23 08:39:03;;;;;;;13.10;4.72;;;;;;;23.52;51.11;100127.09;5015287;28;20107;-87
2022/05/23 08:41:34;;;;;;;8.03;4.60;;;;;;;23.69;50.41;100098.50;5022692;28;20049;-86
2022/05/23 08:44:22;;;;;;;11.25;5.07;;;;;;;23.56;50.69;100094.34;5029322;28;20030;-85
2022/05/23 08:47:06;;;;;;;8.13;4.70;;;;;;;23.31;50.60;100085.72;5049018;28;20033;-86
2022/05/23 08:49:39;;;;;;;9.82;5.05;;;;;;;22.99;50.83;100092.94;5045374;28;20021;-88
2022/05/23 08:52:24;;;;;;;7.85;4.80;;;;;;;22.71;51.49;100087.69;5372416;22;20061;-87
2022/05/23 08:55:07;;;;;;;10.00;4.93;;;;;;;22.75;53.03;100085.81;5018908;28;20022;-86
2022/05/23 08:57:44;;;;;;;8.93;5.43;;;;;;;22.71;51.76;100086.91;5031579;28;20022;-89
2022/05/23 09:00:18;;;;;;;7.80;5.47;;;;;;;22.62;51.04;100087.88;5029996;28;20503;-88
2022/05/23 09:02:51;;;;;;;9.67;5.90;;;;;;;22.66;52.14;100077.03;5029903;28;20129;-89
2022/05/23 09:05:23;;;;;;;11.07;5.80;;;;;;;22.80;51.52;100071.09;5030385;28;20735;-89
2022/05/23 09:07:54;;;;;;;9.80;5.38;;;;;;;23.24;51.63;100059.84;5028462;28;20025;-89
2022/05/23 09:10:30;;;;;;;8.93;5.38;;;;;;;23.77;49.79;100060.31;5028154;28;20436;-89
2022/05/23 09:12:55;;;;;;;9.13;4.85;;;;;;;24.02;48.27;100053.31;5011851;28;20029;-87
2022/05/23 09:15:23;;;;;;;13.20;4.80;;;;;;;24.15;47.33;100048.44;5029840;28;20072;-87
2022/05/23 09:17:54;;;;;;;8.68;4.72;;;;;;;23.97;47.99;100048.16;5028569;28;20489;-87
2022/05/23 09:20:39;;;;;;;9.10;4.40;;;;;;;23.74;48.98;100035.28;5026575;28;20114;-88
2022/05/23 09:23:27;;;;;;;9.55;4.68;;;;;;;23.34;48.99;100024.88;5025426;28;20551;-87
2022/05/23 09:25:55;;;;;;;11.30;5.18;;;;;;;23.07;50.01;100024.78;5029150;28;20049;-87
2022/05/23 09:28:34;;;;;;;10.20;5.10;;;;;;;22.97;49.98;100037.09;5029363;28;20124;-88
2022/05/23 09:31:23;;;;;;;8.63;4.72;;;;;;;23.08;50.63;100024.41;5029424;28;20048;-88
2022/05/23 09:33:51;;;;;;;8.63;4.73;;;;;;;23.06;50.24;100021.25;5016421;28;20662;-87
2022/05/23 09:36:32;;;;;;;11.03;5.03;;;;;;;22.99;50.99;100016.44;5032012;28;20287;-87
2022/05/23 09:39:01;;;;;;;10.05;5.10;;;;;;;22.87;51.32;100013.88;5014506;28;20040;-88
2022/05/23 10:02:59;;;;;;;12.50;5.37;;;;;;;24.35;47.76;99947.81;5856443;22;20527;-88
2022/05/23 10:20:25;;;;;;;10.40;4.47;;;;;;;25.91;43.75;99937.41;5668007;22;20050;-89
2022/05/23 10:22:58;;;;;;;6.38;4.90;;;;;;;25.59;44.38;99935.25;5012043;28;20116;-85
2022/05/23 10:25:27;;;;;;;8.23;4.45;;;;;;;25.48;45.27;99952.41;5030337;28;20029;-88
2022/05/23 10:27:59;;;;;;;12.68;5.13;;;;;;;24.95;45.47;99959.00;5032759;28;20022;-89
2022/05/23 10:30:30;;;;;;;9.70;4.77;;;;;;;24.81;45.38;99954.19;5014729;28;20068;-89
2022/05/23 10:33:16;;;;;;;11.97;5.40;;;;;;;24.91;45.66;99950.75;5031871;28;20316;-89
2022/05/23 10:36:17;;;;;;;8.05;4.80;;;;;;;25.24;46.98;99937.34;5031483;28;20068;-88
2022/05/23 10:42:08;;;;;;;8.93;5.65;;;;;;;25.44;45.33;99948.88;5020460;28;20043;-89
2022/05/23 10:44:51;;;;;;;7.80;5.60;;;;;;;25.45;44.69;99927.72;5032434;28;20036;-91
2022/05/23 10:47:50;;;;;;;9.43;5.53;;;;;;;25.53;45.32;99927.41;5032505;28;20025;-90
2022/05/23 10:50:56;;;;;;;10.43;5.80;;;;;;;25.73;45.39;99913.41;5032112;28;20117;-92
2022/05/23 10:53:53;;;;;;;10.45;4.65;;;;;;;25.83;45.70;99901.69;4969107;28;20134;-92
2022/05/23 10:56:35;;;;;;;8.10;5.07;;;;;;;26.00;43.58;99893.91;5025336;28;20068;-89
2022/05/23 10:59:11;;;;;;;8.57;4.17;;;;;;;26.05;43.58;99892.75;5028796;28;20037;-90
2022/05/23 11:01:47;;;;;;;8.43;4.83;;;;;;;26.02;42.12;99874.34;5264079;22;20414;-92
2022/05/23 11:04:31;;;;;;;9.70;4.57;;;;;;;26.13;43.49;99886.91;5032966;28;20049;-92
2022/05/23 11:06:59;;;;;;;7.80;3.97;;;;;;;26.46;43.03;99881.53;5021690;28;20041;-91
2022/05/23 11:16:41;;;;;;;6.80;3.95;;;;;;;26.94;40.48;99827.38;5035878;22;20049;-93
2022/05/23 11:19:36;;;;;;;9.65;3.97;;;;;;;26.93;40.23;99812.13;4968946;28;20055;-93
2022/05/23 11:22:15;;;;;;;9.32;3.75;;;;;;;27.23;38.64;99806.13;5004456;28;20038;-91
2022/05/23 11:24:56;;;;;;;5.18;3.30;;;;;;;27.62;39.40;99807.22;5001123;28;20033;-93
2022/05/23 11:35:52;;;;;;;7.85;3.13;;;;;;;28.51;36.51;99788.59;5056712;28;20052;-92
2022/05/23 11:38:19;;;;;;;6.20;2.90;;;;;;;28.65;35.91;99773.91;5038504;28;20033;-92
2022/05/23 11:41:22;;;;;;;5.82;3.60;;;;;;;28.81;37.29;99787.19;5146522;22;20079;-92
2022/05/23 11:43:54;;;;;;;5.45;3.60;;;;;;;28.90;36.26;99761.13;5030498;28;20092;-92
2022/05/23 11:46:26;;;;;;;10.73;3.63;;;;;;;29.64;36.00;99784.72;5057324;28;20025;-92
2022/05/23 11:49:02;;;;;;;7.28;3.00;;;;;;;29.79;35.03;99749.41;5034912;28;20089;-93
2022/05/23 11:51:57;;;;;;;6.90;3.15;;;;;;;29.98;34.60;99775.59;5207387;22;20119;-92
2022/05/23 11:58:16;;;;;;;5.03;2.60;;;;;;;28.84;34.66;99755.28;5035297;28;20291;-94
2022/05/23 12:01:06;;;;;;;4.60;2.58;;;;;;;28.48;35.66;99744.56;5129708;22;20041;-92
2022/05/23 12:04:03;;;;;;;8.10;3.05;;;;;;;28.47;34.57;99749.31;5021228;28;20036;-91
2022/05/23 12:06:54;;;;;;;6.18;3.08;;;;;;;28.26;35.34;99723.50;5039336;28;20037;-93
2022/05/23 12:10:05;;;;;;;4.13;2.10;;;;;;;28.65;35.27;99721.56;5032847;28;20111;-95
2022/05/23 12:12:51;;;;;;;7.03;2.65;;;;;;;28.55;35.14;99739.00;4995925;28;20038;-92
2022/05/23 12:15:49;;;;;;;4.78;2.45;;;;;;;28.14;35.77;99757.00;5014494;28;20025;-93
2022/05/23 12:18:53;;;;;;;4.43;2.60;;;;;;;27.44;36.54;99741.25;5005772;28;20029;-94
2022/05/23 12:21:36;;;;;;;3.17;2.40;;;;;;;26.92;37.18;99731.63;5048686;22;20662;-94
2022/05/23 12:24:30;;;;;;;7.17;2.67;;;;;;;26.43;38.44;99734.00;5030247;28;20036;-95
2022/05/23 12:26:59;;;;;;;4.43;2.17;;;;;;;26.08;38.89;99725.34;5018713;28;20367;-92
2022/05/23 12:29:35;;;;;;;4.13;2.28;;;;;;;25.79;39.56;99724.53;5048907;22;20502;-92
2022/05/23 12:32:25;;;;;;;3.88;2.58;;;;;;;25.98;40.55;99734.34;5018371;22;20049;-91
2022/05/23 12:45:04;;;;;;;;;;;;;;;;;;;;;
2022/05/23 12:51:27;;;;;;;7.85;2.78;;;;;;;27.31;36.61;99697.72;5004980;22;20111;-92
2022/05/23 12:54:39;;;;;;;5.60;2.20;;;;;;;27.23;37.91;99687.13;5031572;28;20138;-93
2022/05/23 12:58:07;;;;;;;4.77;2.50;;;;;;;27.03;38.11;99666.41;5011932;28;20285;-93
2022/05/23 13:01:00;;;;;;;5.75;3.10;;;;;;;27.03;38.80;99655.41;4922188;29;20047;-94
2022/05/23 13:03:44;;;;;;;6.72;2.30;;;;;;;27.10;38.85;99676.59;4931995;29;20202;-94
2022/05/23 13:06:26;;;;;;;6.45;3.05;;;;;;;26.68;39.63;99650.78;4933460;29;20028;-94
2022/05/23 13:09:36;;;;;;;13.50;4.70;;;;;;;26.81;43.74;99673.16;4923259;29;20042;-90
2022/05/23 13:12:26;;;;;;;10.77;3.20;;;;;;;26.27;45.10;99658.31;4895676;29;20040;-91
2022/05/23 13:14:56;;;;;;;9.70;3.63;;;;;;;26.03;45.54;99653.59;4928342;28;20050;-91
2022/05/23 13:17:37;;;;;;;6.28;3.33;;;;;;;25.84;45.37;99645.38;5004765;28;20036;-90
2022/05/23 13:23:15;;;;;;;9.13;2.60;;;;;;;25.43;45.14;99636.69;5015148;28;20044;-93
2022/05/23 13:25:54;;;;;;;7.33;3.30;;;;;;;24.55;49.91;99629.25;5021770;28;20311;-95
2022/05/23 13:28:20;;;;;;;6.20;3.20;;;;;;;24.23;55.11;99657.97;5025055;28;20095;-95
2022/05/23 13:31:00;;;;;;;6.03;3.25;;;;;;;23.85;52.94;99624.41;5005119;28;20400;-93
2022/05/23 13:33:34;;;;;;;5.93;3.22;;;;;;;23.65;54.97;99624.63;5009775;28;20132;-91
2022/05/23 13:36:19;;;;;;;5.70;3.20;;;;;;;23.79;56.84;99647.78;5014868;28;20108;-95
2022/05/23 13:39:06;;;;;;;7.63;3.42;;;;;;;23.54;55.31;99635.44;5026162;28;20028;-91
2022/05/23 13:41:32;;;;;;;9.02;3.40;;;;;;;23.62;58.37;99632.81;5009337;28;20145;-90
2022/05/23 13:44:08;;;;;;;6.53;4.28;;;;;;;23.51;57.79;99619.03;5013535;28;20018;-91
2022/05/23 13:46:43;;;;;;;8.50;3.97;;;;;;;23.96;58.20;99583.47;5013557;28;20080;-92
2022/05/23 13:49:42;;;;;;;8.53;3.50;;;;;;;24.83;54.99;99609.47;4998238;28;20497;-92
2022/05/23 13:55:30;;;;;;;7.75;3.75;;;;;;;25.67;54.27;99608.50;5013978;28;20088;-91
2022/05/23 13:58:18;;;;;;;5.75;3.75;;;;;;;25.94;51.30;99591.66;4994955;28;20556;-91